Time,TemperatureF,DewpointF,PressureIn,WindDirection,WindDirectionDegrees,WindSpeedMPH,WindSpeedGustMPH,Humidity,HourlyPrecipIn,Conditions,Clouds,dailyrainin,SoftwareType,DateUTC
2013-06-27 00:12:00,66.3,64.0,29.73,West,271,0.0,0.0,93,0.00,,,0.00,weatherlink.com 1.10,2013-06-27 05:12:00,
2013-06-27 00:27:00,66.4,65.0,29.72,West,271,0.0,0.0,94,0.00,,,0.00,weatherlink.com 1.10,2013-06-27 05:27:00,
2013-06-27 00:42:00,65.6,64.0,29.72,West,271,0.0,0.0,93,0.00,,,0.00,weatherlink.com 1.10,2013-06-27 05:42:00,
2013-06-27 00:57:00,65.0,63.0,29.72,West,263,3.0,3.0,93,0.00,,,0.00,weatherlink.com 1.10,2013-06-27 05:57:00,
2013-06-27 01:12:00,65.2,64.0,29.73,West,259,1.0,2.0,95,0.00,,,0.00,weatherlink.com 1.10,2013-06-27 06:12:00,
2013-06-27 01:27:00,64.3,63.0,29.73,West,276,1.0,4.0,95,0.00,,,0.00,weatherlink.com 1.10,2013-06-27 06:27:00,
2013-06-27 01:42:00,65.5,64.0,29.72,West,264,3.0,4.0,96,0.00,,,0.00,weatherlink.com 1.10,2013-06-27 06:42:00,
2013-06-27 01:57:00,65.8,65.0,29.73,West,274,3.0,3.0,96,0.00,,,0.00,weatherlink.com 1.10,2013-06-27 06:57:00,
2013-06-27 02:12:00,65.8,64.0,29.72,West,262,0.0,3.0,95,0.00,,,0.00,weatherlink.com 1.10,2013-06-27 07:12:00,
2013-06-27 02:27:00,65.2,64.0,29.72,WSW,250,0.0,0.0,95,0.00,,,0.00,weatherlink.com 1.10,2013-06-27 07:27:00,
2013-06-27 02:42:00,64.6,63.0,29.72,WSW,250,0.0,0.0,95,0.00,,,0.00,weatherlink.com 1.10,2013-06-27 07:42:00,
2013-06-27 02:57:00,65.7,65.0,29.72,West,264,2.0,2.0,97,0.00,,,0.00,weatherlink.com 1.10,2013-06-27 07:57:00,
2013-06-27 03:12:00,66.2,65.0,29.72,WSW,255,2.0,3.0,96,0.00,,,0.00,weatherlink.com 1.10,2013-06-27 08:12:00,
2013-06-27 03:27:00,65.3,64.0,29.71,West,259,1.0,2.0,96,0.00,,,0.00,weatherlink.com 1.10,2013-06-27 08:27:00,
2013-06-27 03:42:00,64.6,64.0,29.71,WSW,258,0.0,0.0,96,0.00,,,0.00,weatherlink.com 1.10,2013-06-27 08:42:00,
2013-06-27 03:57:00,65.3,65.0,29.72,West,264,0.0,0.0,97,0.00,,,0.00,weatherlink.com 1.10,2013-06-27 08:57:00,
2013-06-27 04:12:00,66.9,66.0,29.72,WNW,283,0.0,3.0,97,0.00,,,0.00,weatherlink.com 1.10,2013-06-27 09:12:00,
2013-06-27 04:27:00,65.7,65.0,29.72,WSW,252,0.0,0.0,96,0.00,,,0.00,weatherlink.com 1.10,2013-06-27 09:27:00,
2013-06-27 04:42:00,65.4,65.0,29.72,West,269,0.0,1.0,97,0.00,,,0.00,weatherlink.com 1.10,2013-06-27 09:42:00,
2013-06-27 04:57:00,67.4,67.0,29.73,West,274,1.0,2.0,97,0.00,,,0.00,weatherlink.com 1.10,2013-06-27 09:57:00,
2013-06-27 05:12:00,67.4,66.0,29.73,West,260,0.0,3.0,96,0.00,,,0.00,weatherlink.com 1.10,2013-06-27 10:12:00,
2013-06-27 05:27:00,67.0,66.0,29.73,West,260,0.0,0.0,96,0.00,,,0.00,weatherlink.com 1.10,2013-06-27 10:27:00,
2013-06-27 05:42:00,67.0,66.0,29.73,West,261,0.0,0.0,96,0.00,,,0.00,weatherlink.com 1.10,2013-06-27 10:42:00,
2013-06-27 05:58:00,66.6,66.0,29.73,West,262,0.0,0.0,96,0.00,,,0.00,weatherlink.com 1.10,2013-06-27 10:58:00,
2013-06-27 06:13:00,66.8,66.0,29.74,West,262,0.0,0.0,97,0.00,,,0.00,weatherlink.com 1.10,2013-06-27 11:13:00,
2013-06-27 06:28:00,67.1,66.0,29.73,West,262,0.0,0.0,97,0.00,,,0.00,weatherlink.com 1.10,2013-06-27 11:28:00,
2013-06-27 06:43:00,67.8,67.0,29.73,West,274,0.0,0.0,97,0.00,,,0.00,weatherlink.com 1.10,2013-06-27 11:43:00,
2013-06-27 06:58:00,69.3,69.0,29.73,WSW,257,3.0,5.0,97,0.00,,,0.00,weatherlink.com 1.10,2013-06-27 11:58:00,
2013-06-27 07:13:00,70.8,69.0,29.72,West,278,2.0,5.0,95,0.00,,,0.00,weatherlink.com 1.10,2013-06-27 12:13:00,
2013-06-27 07:28:00,72.2,70.0,29.73,West,262,4.0,6.0,93,0.00,,,0.00,weatherlink.com 1.10,2013-06-27 12:28:00,
2013-06-27 07:43:00,72.9,71.0,29.73,West,266,4.0,8.0,93,0.00,,,0.00,weatherlink.com 1.10,2013-06-27 12:43:00,
2013-06-27 07:58:00,73.2,71.0,29.73,WSW,256,4.0,10.0,92,0.00,,,0.00,weatherlink.com 1.10,2013-06-27 12:58:00,
2013-06-27 08:13:00,73.5,71.0,29.72,West,262,8.0,8.0,92,0.00,,,0.00,weatherlink.com 1.10,2013-06-27 13:13:00,
2013-06-27 08:28:00,74.6,72.0,29.72,NW,309,6.0,8.0,90,0.00,,,0.00,weatherlink.com 1.10,2013-06-27 13:28:00,
2013-06-27 08:43:00,75.7,72.0,29.72,WNW,302,5.0,8.0,89,0.00,,,0.00,weatherlink.com 1.10,2013-06-27 13:43:00,
2013-06-27 08:58:00,76.7,73.0,29.72,West,281,3.0,7.0,87,0.00,,,0.00,weatherlink.com 1.10,2013-06-27 13:58:00,
2013-06-27 09:13:00,77.7,73.0,29.72,WSW,246,9.0,9.0,85,0.00,,,0.00,weatherlink.com 1.10,2013-06-27 14:13:00,
2013-06-27 09:28:00,78.3,73.0,29.72,WNW,283,6.0,9.0,84,0.00,,,0.00,weatherlink.com 1.10,2013-06-27 14:28:00,
2013-06-27 09:43:00,78.5,73.0,29.72,WNW,287,3.0,14.0,83,0.00,,,0.00,weatherlink.com 1.10,2013-06-27 14:43:00,
2013-06-27 09:58:00,79.5,73.0,29.72,West,273,4.0,10.0,79,0.00,,,0.00,weatherlink.com 1.10,2013-06-27 14:58:00,
2013-06-27 10:13:00,80.3,73.0,29.72,West,262,7.0,9.0,78,0.00,,,0.00,weatherlink.com 1.10,2013-06-27 15:13:00,
2013-06-27 10:28:00,80.3,73.0,29.71,West,278,5.0,8.0,77,0.00,,,0.00,weatherlink.com 1.10,2013-06-27 15:28:00,
2013-06-27 10:43:00,80.8,71.0,29.72,West,267,11.0,11.0,72,0.00,,,0.00,weatherlink.com 1.10,2013-06-27 15:43:00,
2013-06-27 10:58:00,81.9,72.0,29.72,NW,304,4.0,9.0,71,0.00,,,0.00,weatherlink.com 1.10,2013-06-27 15:58:00,
2013-06-27 11:13:00,82.5,71.0,29.71,WNW,287,4.0,8.0,69,0.00,,,0.00,weatherlink.com 1.10,2013-06-27 16:13:00,
2013-06-27 11:28:00,82.0,71.0,29.71,West,262,6.0,11.0,69,0.00,,,0.00,weatherlink.com 1.10,2013-06-27 16:28:00,
2013-06-27 11:43:00,82.5,71.0,29.71,WNW,287,3.0,7.0,68,0.00,,,0.00,weatherlink.com 1.10,2013-06-27 16:43:00,
2013-06-27 11:59:00,82.5,70.0,29.71,NNW,335,5.0,12.0,67,0.00,,,0.00,weatherlink.com 1.10,2013-06-27 16:59:00,
2013-06-27 12:14:00,83.2,69.0,29.71,West,274,8.0,11.0,63,0.00,,,0.00,weatherlink.com 1.10,2013-06-27 17:14:00,
2013-06-27 12:29:00,83.2,72.0,29.71,WSW,253,8.0,10.0,69,0.00,,,0.00,weatherlink.com 1.10,2013-06-27 17:29:00,
2013-06-27 12:44:00,83.2,71.0,29.71,WSW,245,9.0,12.0,67,0.00,,,0.00,weatherlink.com 1.10,2013-06-27 17:44:00,
2013-06-27 12:59:00,83.9,70.0,29.71,WSW,258,5.0,8.0,64,0.00,,,0.00,weatherlink.com 1.10,2013-06-27 17:59:00,
2013-06-27 13:14:00,83.9,71.0,29.71,West,281,4.0,10.0,65,0.00,,,0.00,weatherlink.com 1.10,2013-06-27 18:14:00,
2013-06-27 13:29:00,84.5,70.0,29.71,WSW,257,3.0,9.0,62,0.00,,,0.00,weatherlink.com 1.10,2013-06-27 18:29:00,
2013-06-27 13:44:00,85.4,70.0,29.71,WNW,302,3.0,9.0,61,0.00,,,0.00,weatherlink.com 1.10,2013-06-27 18:44:00,
2013-06-27 13:59:00,84.6,70.0,29.70,West,270,5.0,12.0,61,0.00,,,0.00,weatherlink.com 1.10,2013-06-27 18:59:00,
2013-06-27 14:14:00,84.8,70.0,29.70,West,266,4.0,10.0,61,0.00,,,0.00,weatherlink.com 1.10,2013-06-27 19:14:00,
2013-06-27 14:29:00,83.2,70.0,29.68,West,266,2.0,7.0,64,0.00,,,0.00,weatherlink.com 1.10,2013-06-27 19:29:00,
2013-06-27 14:44:00,79.0,65.0,29.70,North,349,3.0,8.0,63,0.00,,,0.00,weatherlink.com 1.10,2013-06-27 19:44:00,
2013-06-27 14:59:00,69.3,65.0,29.71,NNW,344,2.0,13.0,85,0.21,,,0.21,weatherlink.com 1.10,2013-06-27 19:59:00,
2013-06-27 15:14:00,67.6,65.0,29.70,East,84,0.0,2.0,92,0.29,,,0.29,weatherlink.com 1.10,2013-06-27 20:14:00,
2013-06-27 15:29:00,67.9,66.0,29.69,ENE,76,1.0,2.0,93,0.30,,,0.30,weatherlink.com 1.10,2013-06-27 20:29:00,
2013-06-27 15:59:00,68.3,66.0,29.68,West,266,1.0,1.0,92,0.08,,,0.30,weatherlink.com 1.10,2013-06-27 20:59:00,
2013-06-27 16:14:00,69.3,68.0,29.69,WNW,295,0.0,5.0,94,0.02,,,0.31,weatherlink.com 1.10,2013-06-27 21:14:00,
2013-06-27 16:29:00,70.8,69.0,29.67,SW,233,2.0,4.0,93,0.01,,,0.31,weatherlink.com 1.10,2013-06-27 21:29:00,
2013-06-27 16:44:00,72.2,69.0,29.66,SW,222,4.0,8.0,89,0.01,,,0.31,weatherlink.com 1.10,2013-06-27 21:44:00,
2013-06-27 16:59:00,74.2,70.0,29.65,West,262,6.0,6.0,86,0.01,,,0.31,weatherlink.com 1.10,2013-06-27 21:59:00,
2013-06-27 17:44:00,77.9,70.0,29.64,WNW,291,3.0,6.0,76,0.00,,,0.31,weatherlink.com 1.10,2013-06-27 22:44:00,
2013-06-27 17:59:00,78.7,70.0,29.64,WSW,256,2.0,5.0,74,0.00,,,0.31,weatherlink.com 1.10,2013-06-27 22:59:00,
2013-06-27 18:14:00,79.9,71.0,29.64,WSW,248,1.0,3.0,73,0.00,,,0.31,weatherlink.com 1.10,2013-06-27 23:14:00,
2013-06-27 18:29:00,79.7,69.0,29.64,West,267,2.0,4.0,70,0.00,,,0.31,weatherlink.com 1.10,2013-06-27 23:29:00,
2013-06-27 18:44:00,79.5,70.0,29.65,NNW,346,1.0,4.0,72,0.00,,,0.31,weatherlink.com 1.10,2013-06-27 23:44:00,
2013-06-27 18:59:00,78.6,70.0,29.65,NNW,347,1.0,1.0,76,0.00,,,0.31,weatherlink.com 1.10,2013-06-27 23:59:00,
2013-06-27 19:14:00,77.3,71.0,29.65,WSW,242,0.0,1.0,80,0.01,,,0.32,weatherlink.com 1.10,2013-06-28 00:14:00,
2013-06-27 19:29:00,75.8,70.0,29.64,NNW,343,0.0,3.0,83,0.01,,,0.32,weatherlink.com 1.10,2013-06-28 00:29:00,
2013-06-27 19:44:00,74.8,70.0,29.64,West,277,0.0,1.0,85,0.01,,,0.32,weatherlink.com 1.10,2013-06-28 00:44:00,
2013-06-27 19:59:00,75.8,70.0,29.65,NNW,348,0.0,1.0,83,0.01,,,0.32,weatherlink.com 1.10,2013-06-28 00:59:00,
2013-06-27 20:29:00,73.4,70.0,29.65,West,259,0.0,0.0,88,0.00,,,0.32,weatherlink.com 1.10,2013-06-28 01:29:00,
2013-06-27 20:44:00,72.4,69.0,29.65,West,259,0.0,0.0,90,0.00,,,0.32,weatherlink.com 1.10,2013-06-28 01:44:00,
2013-06-27 21:14:00,72.0,69.0,29.66,ENE,68,2.0,4.0,90,0.00,,,0.32,weatherlink.com 1.10,2013-06-28 02:14:00,
2013-06-27 21:44:00,68.4,64.0,29.68,ENE,62,1.0,7.0,87,0.00,,,0.32,weatherlink.com 1.10,2013-06-28 02:44:00,
2013-06-27 21:59:00,67.3,64.0,29.68,ENE,75,0.0,4.0,88,0.00,,,0.32,weatherlink.com 1.10,2013-06-28 02:59:00,
2013-06-27 22:14:00,66.6,63.0,29.67,ENE,75,0.0,0.0,89,0.00,,,0.32,weatherlink.com 1.10,2013-06-28 03:14:00,
2013-06-27 22:29:00,65.7,63.0,29.66,ENE,75,0.0,0.0,90,0.00,,,0.32,weatherlink.com 1.10,2013-06-28 03:29:00,
2013-06-27 22:44:00,64.9,62.0,29.66,ENE,75,0.0,0.0,91,0.00,,,0.32,weatherlink.com 1.10,2013-06-28 03:44:00,
2013-06-27 22:59:00,64.6,63.0,29.67,NNW,330,0.0,0.0,93,0.00,,,0.32,weatherlink.com 1.10,2013-06-28 03:59:00,
2013-06-27 23:14:00,64.6,62.0,29.68,WSW,239,0.0,1.0,92,0.00,,,0.32,weatherlink.com 1.10,2013-06-28 04:14:00,
2013-06-27 23:29:00,64.5,62.0,29.68,WSW,246,0.0,1.0,92,0.00,,,0.32,weatherlink.com 1.10,2013-06-28 04:29:00,
2013-06-27 23:44:00,64.5,63.0,29.68,WSW,248,0.0,0.0,93,0.00,,,0.32,weatherlink.com 1.10,2013-06-28 04:44:00,
2013-06-27 23:59:00,63.5,61.0,29.67,WSW,245,0.0,0.0,92,0.00,,,0.00,weatherlink.com 1.10,2013-06-28 04:59:00,